Time;durP1;ratioP1;P1;durP2;ratioP2;P2;SDS_P1;SDS_P2;PMS_P1;PMS_P2;Temp;Humidity;BMP_temperature;BMP_pressure;BME280_temperature;BME280_humidity;BME280_pressure;Samples;Min_cycle;Max_cycle;Signal;HPM_P1;HPM_P2
2020/12/24 05:02:37;;;;;;;2.85;0.70;;;;;;;10.12;79.33;98942.75;4740459;22;20068;-52
2020/12/24 05:05:03;;;;;;;1.40;0.70;;;;;;;9.90;78.64;98947.28;4993626;28;20041;-55
2020/12/24 05:07:29;;;;;;;0.68;0.47;;;;;;;9.41;82.18;98957.75;4994967;28;20036;-53
2020/12/24 05:09:54;;;;;;;1.30;0.40;;;;;;;9.64;80.07;98966.78;4991328;28;20457;-54
2020/12/24 05:12:30;;;;;;;1.30;0.70;;;;;;;9.43;81.63;98971.03;4990165;28;20061;-54
2020/12/24 05:14:56;;;;;;;0.93;0.50;;;;;;;9.73;78.67;98974.25;4973136;28;20049;-53
2020/12/24 05:17:23;;;;;;;0.30;0.30;;;;;;;9.75;78.19;98990.19;4990267;28;20034;-54
2020/12/24 05:20:05;;;;;;;0.63;0.47;;;;;;;9.64;77.60;98997.31;4973366;28;20064;-52
2020/12/24 05:22:31;;;;;;;0.70;0.35;;;;;;;9.68;76.79;99001.16;4988335;28;20072;-54
2020/12/24 05:25:10;;;;;;;3.00;0.57;;;;;;;9.96;75.05;99007.56;4973381;28;20038;-54
2020/12/24 05:27:38;;;;;;;2.38;0.40;;;;;;;10.03;75.32;98995.56;5005765;28;20072;-53
2020/12/24 05:30:06;;;;;;;0.88;0.30;;;;;;;10.13;74.48;98995.72;5003883;28;20477;-57
2020/12/24 05:32:33;;;;;;;1.50;0.77;;;;;;;10.38;72.98;99008.84;5007712;28;20050;-53
2020/12/24 05:35:08;;;;;;;1.45;0.50;;;;;;;10.07;73.73;99020.16;4989516;28;20601;-54
2020/12/24 05:37:34;;;;;;;2.95;0.57;;;;;;;10.40;73.96;99000.47;4986424;28;20041;-54
2020/12/24 05:40:17;;;;;;;1.60;0.75;;;;;;;10.23;71.60;98996.97;4987801;28;20129;-53
2020/12/24 05:42:47;;;;;;;2.97;0.60;;;;;;;10.04;73.19;98997.16;4983401;28;20065;-53
2020/12/24 05:45:18;;;;;;;1.23;0.40;;;;;;;10.18;72.54;98981.50;4951218;28;20050;-54
2020/12/24 05:47:44;;;;;;;3.55;0.52;;;;;;;10.04;73.18;98986.38;4946279;28;20046;-54
2020/12/24 05:50:24;;;;;;;1.33;0.50;;;;;;;10.25;73.01;98989.44;4968058;28;20046;-55
2020/12/24 05:53:09;;;;;;;1.80;0.57;;;;;;;9.97;72.91;98990.31;4983645;28;20038;-55
2020/12/24 05:55:39;;;;;;;1.88;0.80;;;;;;;9.92;73.29;98995.63;4967107;28;20042;-55
2020/12/24 05:58:07;;;;;;;2.97;0.50;;;;;;;9.76;75.13;99008.03;4985700;28;20241;-56
2020/12/24 06:00:39;;;;;;;2.03;0.70;;;;;;;9.95;74.02;99014.84;4985106;28;20270;-55
2020/12/24 06:03:15;;;;;;;;;;;;;;;9.97;71.87;99030.81;4969935;28;20499;-55
2020/12/24 06:05:53;;;;;;;2.05;0.60;;;;;;;9.91;72.71;99040.72;4951509;28;19972;-54
2020/12/24 06:08:22;;;;;;;0.40;0.40;;;;;;;9.81;72.61;99041.31;4976322;28;20046;-54
2020/12/24 06:11:08;;;;;;;2.85;0.55;;;;;;;9.93;72.98;99025.06;4951843;28;20058;-54
2020/12/24 06:13:45;;;;;;;0.57;0.47;;;;;;;9.81;73.98;99025.13;4985099;28;20054;-55
2020/12/24 06:16:13;;;;;;;1.20;0.30;;;;;;;9.77;74.22;99045.59;4969021;28;20125;-53
2020/12/24 06:18:43;;;;;;;1.33;0.70;;;;;;;9.75;74.04;99057.69;4970660;28;20427;-53
2020/12/24 06:21:15;;;;;;;0.43;0.43;;;;;;;9.80;69.80;99055.09;4965023;28;20104;-53
2020/12/24 06:24:01;;;;;;;2.58;0.90;;;;;;;9.77;70.76;99033.97;4973989;28;20041;-53
2020/12/24 06:26:34;;;;;;;2.38;0.55;;;;;;;9.67;71.48;99013.03;4970338;28;20420;-54
2020/12/24 06:29:03;;;;;;;1.52;0.70;;;;;;;9.51;71.90;99035.38;4970641;28;20439;-53
2020/12/24 06:31:30;;;;;;;0.80;0.50;;;;;;;9.42;74.26;99045.72;4987064;28;20422;-53
2020/12/24 06:33:56;;;;;;;1.98;0.45;;;;;;;9.32;74.65;99037.44;4971228;28;20044;-53
2020/12/24 06:36:34;;;;;;;2.30;0.70;;;;;;;9.46;71.56;99056.06;4983795;28;20048;-53
2020/12/24 06:39:05;;;;;;;2.45;0.52;;;;;;;9.40;73.35;99044.31;4970517;28;20412;-55
2020/12/24 06:41:36;;;;;;;2.22;0.50;;;;;;;9.47;70.83;99053.09;5004490;28;20050;-53
2020/12/24 06:44:05;;;;;;;4.35;1.90;;;;;;;9.57;68.93;99063.28;4972215;28;20072;-53
2020/12/24 06:46:56;;;;;;;1.95;0.40;;;;;;;9.55;68.94;99058.13;4989350;28;20518;-55
2020/12/24 06:49:32;;;;;;;1.05;0.30;;;;;;;9.52;69.45;99055.09;4972145;28;20498;-52
2020/12/24 06:51:59;;;;;;;0.45;0.35;;;;;;;9.41;69.92;99054.06;4984334;28;20426;-52
2020/12/24 06:54:26;;;;;;;2.17;0.60;;;;;;;9.19;70.82;99047.69;4954105;28;21082;-54
2020/12/24 06:57:25;;;;;;;1.13;0.40;;;;;;;9.20;71.42;99055.53;4966743;28;20022;-55
2020/12/24 07:00:23;;;;;;;3.05;0.50;;;;;;;9.06;72.09;99041.50;4963244;28;20042;-55
2020/12/24 07:02:50;;;;;;;2.05;0.50;;;;;;;8.96;72.86;99049.38;4980276;28;20038;-53
2020/12/24 07:05:42;;;;;;;1.30;0.55;;;;;;;8.85;73.30;99044.81;4985469;28;20050;-54
2020/12/24 07:08:31;;;;;;;2.53;0.50;;;;;;;8.71;73.30;99041.53;4961089;28;20088;-55
2020/12/24 07:10:59;;;;;;;4.40;1.10;;;;;;;8.63;75.36;99060.75;4959988;28;20422;-56
2020/12/24 07:13:34;;;;;;;1.98;0.57;;;;;;;8.50;73.87;99071.78;4971693;28;20084;-56
2020/12/24 07:16:08;;;;;;;1.35;0.90;;;;;;;8.33;73.70;99066.22;4970857;28;20041;-54
2020/12/24 07:18:37;;;;;;;0.43;0.38;;;;;;;8.69;74.57;99050.91;4992963;28;20129;-56
2020/12/24 07:21:09;;;;;;;3.67;0.85;;;;;;;8.60;72.50;99045.06;4989013;28;20061;-54
2020/12/24 07:23:40;;;;;;;1.73;0.70;;;;;;;8.72;70.80;99045.06;5001794;28;20512;-56
2020/12/24 07:26:08;;;;;;;3.08;0.77;;;;;;;8.84;74.17;99040.47;5006297;28;20111;-54
2020/12/24 07:28:37;;;;;;;4.70;0.80;;;;;;;8.54;71.30;99058.63;5020898;28;20053;-54
2020/12/24 07:31:07;;;;;;;7.80;0.57;;;;;;;8.43;72.61;99060.28;4988704;28;20053;-54
2020/12/24 07:33:34;;;;;;;2.05;0.63;;;;;;;8.40;72.48;99058.06;5000383;28;20128;-53
2020/12/24 07:36:00;;;;;;;3.80;0.70;;;;;;;8.45;72.16;99076.19;4978783;28;20049;-54
2020/12/24 07:38:29;;;;;;;5.03;0.85;;;;;;;8.55;71.69;99065.66;4999308;28;20307;-55
2020/12/24 07:40:55;;;;;;;3.85;0.75;;;;;;;8.51;73.06;99083.38;4987201;28;20445;-54
2020/12/24 07:43:23;;;;;;;3.15;0.73;;;;;;;8.21;74.29;99083.38;5005070;28;20053;-55
2020/12/24 07:45:49;;;;;;;5.75;1.05;;;;;;;8.11;75.31;99065.13;4990921;28;20048;-55
2020/12/24 07:48:18;;;;;;;2.67;0.68;;;;;;;8.04;74.44;99059.03;4987526;28;20041;-55
2020/12/24 07:50:46;;;;;;;2.95;1.00;;;;;;;8.09;72.96;99059.13;4990912;28;20063;-52
2020/12/24 07:53:28;;;;;;;3.47;0.63;;;;;;;8.22;71.04;99052.72;4989483;28;20053;-54
2020/12/24 07:56:04;;;;;;;3.85;1.10;;;;;;;8.33;69.74;99043.88;4968529;28;20133;-54
2020/12/24 07:58:30;;;;;;;4.18;1.00;;;;;;;8.29;70.54;99053.47;4968109;28;20038;-54
2020/12/24 08:00:56;;;;;;;3.88;0.90;;;;;;;8.23;69.64;99051.69;4987832;28;20048;-54
2020/12/24 08:03:21;;;;;;;7.63;0.80;;;;;;;8.15;70.32;99074.38;4990759;28;20077;-53
2020/12/24 08:05:49;;;;;;;11.18;2.17;;;;;;;8.22;70.49;99067.00;5008074;28;20049;-53
2020/12/24 08:08:22;;;;;;;4.35;1.02;;;;;;;8.09;69.95;99079.84;4977248;28;20133;-53
2020/12/24 08:10:49;;;;;;;4.35;0.80;;;;;;;8.10;70.13;99076.13;4972282;28;20041;-54
2020/12/24 08:13:14;;;;;;;2.85;1.00;;;;;;;8.18;69.85;99083.88;4968795;28;20046;-54
2020/12/24 08:15:42;;;;;;;2.00;0.63;;;;;;;8.17;69.92;99084.94;5002067;28;20034;-54
2020/12/24 08:18:10;;;;;;;3.10;0.77;;;;;;;8.16;69.80;99078.72;4999119;28;20045;-53
2020/12/24 08:20:48;;;;;;;4.20;0.95;;;;;;;8.05;69.07;99076.81;5001910;28;20045;-53
2020/12/24 08:23:17;;;;;;;4.97;0.90;;;;;;;8.38;75.25;99078.19;4985074;28;20038;-55
2020/12/24 08:25:46;;;;;;;6.38;3.25;;;;;;;8.23;68.50;99086.69;5004093;28;20404;-54
2020/12/24 08:28:13;;;;;;;3.47;1.02;;;;;;;8.37;71.62;99072.00;5005023;28;20041;-54
2020/12/24 08:30:43;;;;;;;7.15;0.80;;;;;;;8.26;68.72;99070.88;4982800;28;20042;-54
2020/12/24 08:33:08;;;;;;;2.90;0.82;;;;;;;8.48;68.83;99067.66;5020851;28;20034;-53
2020/12/24 08:35:35;;;;;;;2.22;0.75;;;;;;;8.56;70.40;99070.81;4982205;28;20403;-53
2020/12/24 08:38:16;;;;;;;4.50;0.85;;;;;;;8.68;68.17;99062.75;4973475;28;20033;-54
2020/12/24 08:40:43;;;;;;;7.57;0.85;;;;;;;8.67;66.57;99063.78;5005669;28;20096;-55
2020/12/24 08:43:11;;;;;;;3.60;1.15;;;;;;;8.82;66.82;99066.84;4985177;28;20638;-54
2020/12/24 08:45:46;;;;;;;5.80;1.70;;;;;;;8.89;63.95;99070.22;4988042;28;20069;-54
2020/12/24 08:48:33;;;;;;;3.58;1.00;;;;;;;8.90;66.14;99079.13;4994017;28;20098;-55
2020/12/24 08:50:59;;;;;;;4.68;0.93;;;;;;;8.86;66.03;99072.59;4971168;28;20039;-55
2020/12/24 08:53:31;;;;;;;5.28;1.10;;;;;;;8.86;65.31;99078.81;4988636;28;20038;-54
2020/12/24 08:55:58;;;;;;;4.95;0.98;;;;;;;8.94;65.08;99074.91;4968144;28;20057;-55
2020/12/24 08:58:25;;;;;;;7.22;1.33;;;;;;;9.15;65.87;99086.94;4970383;28;20035;-55
2020/12/24 09:00:50;;;;;;;5.32;0.90;;;;;;;9.23;65.67;99073.13;4995710;28;20061;-54
2020/12/24 09:03:25;;;;;;;5.78;0.77;;;;;;;9.13;65.56;99078.28;5010041;28;20092;-55
2020/12/24 09:05:53;;;;;;;1.33;0.60;;;;;;;9.63;69.57;99071.22;4982929;28;20038;-55
2020/12/24 09:08:28;;;;;;;4.38;0.65;;;;;;;9.23;63.29;99079.31;4990745;28;20062;-54
2020/12/24 09:10:54;;;;;;;8.00;1.05;;;;;;;9.27;63.49;99080.47;5006648;28;20069;-55
2020/12/24 09:13:20;;;;;;;6.45;0.98;;;;;;;9.34;63.76;99069.56;4972527;28;20042;-53
2020/12/24 09:15:46;;;;;;;1.45;0.50;;;;;;;9.33;65.38;99060.66;4973717;28;20463;-54
2020/12/24 09:18:12;;;;;;;1.95;0.77;;;;;;;9.37;62.61;99064.50;4990532;28;20120;-53
2020/12/24 09:20:38;;;;;;;5.18;0.80;;;;;;;9.28;63.15;99068.63;4989424;28;20037;-53
2020/12/24 09:23:22;;;;;;;3.88;0.70;;;;;;;9.08;62.58;99052.03;4974876;28;20048;-54
2020/12/24 09:25:47;;;;;;;4.30;1.02;;;;;;;9.31;64.84;99057.38;4988070;28;20085;-53
2020/12/24 09:28:21;;;;;;;3.92;0.82;;;;;;;9.36;62.59;99051.25;4975021;28;20061;-54
2020/12/24 09:30:47;;;;;;;3.45;1.15;;;;;;;9.65;62.33;99034.03;4971404;28;20407;-54
2020/12/24 09:33:13;;;;;;;10.35;1.40;;;;;;;9.66;61.46;99041.06;4970701;28;20130;-54
2020/12/24 09:35:39;;;;;;;5.32;1.38;;;;;;;9.94;61.23;99040.19;4988318;28;20038;-55
2020/12/24 09:38:04;;;;;;;2.47;0.80;;;;;;;10.14;62.12;99031.66;4990492;28;20478;-54
2020/12/24 09:40:30;;;;;;;2.90;1.02;;;;;;;10.11;59.46;99022.16;4972891;28;20045;-54
2020/12/24 09:42:55;;;;;;;5.50;0.90;;;;;;;10.10;60.23;99022.38;5002007;28;20113;-54
2020/12/24 09:45:23;;;;;;;7.90;0.90;;;;;;;10.21;61.27;99028.81;4989985;28;20042;-53
2020/12/24 09:47:49;;;;;;;4.55;1.10;;;;;;;10.24;59.95;99022.91;4986816;28;20466;-54
2020/12/24 09:50:15;;;;;;;3.17;0.90;;;;;;;10.14;59.86;99018.97;5006071;28;20514;-55
2020/12/24 09:52:40;;;;;;;5.03;0.75;;;;;;;10.15;60.36;99020.56;4972793;28;20112;-53
2020/12/24 09:55:07;;;;;;;8.95;0.98;;;;;;;9.89;59.70;99009.63;4971807;28;20064;-55
2020/12/24 09:57:34;;;;;;;8.50;2.15;;;;;;;9.83;60.26;99008.69;4958414;28;20045;-54
2020/12/24 10:00:00;;;;;;;6.50;1.10;;;;;;;9.98;59.67;99003.56;4992623;28;20331;-54
2020/12/24 10:02:26;;;;;;;4.95;1.10;;;;;;;10.23;61.45;99002.38;4990845;28;20068;-53
2020/12/24 10:04:54;;;;;;;2.60;0.88;;;;;;;9.93;60.73;99008.03;4991566;28;20041;-53
2020/12/24 10:07:22;;;;;;;2.17;0.77;;;;;;;9.89;59.37;99005.03;4989377;28;20048;-53
2020/12/24 10:09:51;;;;;;;5.78;1.02;;;;;;;9.88;60.94;99005.28;4970153;28;20038;-54
2020/12/24 10:12:24;;;;;;;5.10;0.77;;;;;;;9.89;61.29;98996.94;4973365;28;20166;-54
2020/12/24 10:14:51;;;;;;;7.47;1.02;;;;;;;9.89;63.38;99002.34;4969669;28;20038;-54
2020/12/24 10:17:16;;;;;;;6.88;1.20;;;;;;;9.87;60.80;98998.22;4973045;28;20049;-55
2020/12/24 10:19:45;;;;;;;8.15;1.27;;;;;;;10.03;59.66;98994.75;4984384;28;20042;-54
2020/12/24 10:22:12;;;;;;;4.30;1.02;;;;;;;10.30;60.69;98990.31;4952435;28;20050;-55
2020/12/24 10:24:40;;;;;;;7.32;1.25;;;;;;;9.86;60.80;98993.91;4952055;28;20050;-54
2020/12/24 10:27:06;;;;;;;4.55;1.13;;;;;;;9.82;61.77;98988.97;4967601;28;20054;-57
2020/12/24 10:29:31;;;;;;;6.68;1.25;;;;;;;9.94;60.48;98997.00;4967426;28;20045;-54
2020/12/24 10:31:57;;;;;;;2.75;1.00;;;;;;;9.86;60.90;98977.69;4967617;28;20061;-53
2020/12/24 10:34:22;;;;;;;13.20;2.13;;;;;;;9.77;60.20;98986.19;4954520;28;20420;-54
2020/12/24 10:36:48;;;;;;;2.80;1.00;;;;;;;9.64;61.77;98978.41;4985617;28;20038;-54
2020/12/24 10:39:13;;;;;;;6.78;1.30;;;;;;;9.51;61.83;98973.31;4972837;28;20091;-54
2020/12/24 10:41:40;;;;;;;4.88;1.00;;;;;;;9.56;64.75;98964.50;4972664;28;20041;-54
2020/12/24 10:44:07;;;;;;;3.72;0.77;;;;;;;9.48;62.62;98963.00;4971192;28;20046;-54
2020/12/24 10:46:34;;;;;;;7.60;2.25;;;;;;;9.40;63.73;98964.22;4989934;28;20041;-53
2020/12/24 10:49:01;;;;;;;5.40;0.98;;;;;;;9.51;63.00;98970.63;4973273;28;20048;-54
2020/12/24 10:51:27;;;;;;;6.63;1.13;;;;;;;9.67;63.24;98977.94;4986414;28;20034;-54
2020/12/24 10:53:53;;;;;;;3.83;0.60;;;;;;;9.78;64.96;98958.16;4971572;28;20048;-55
2020/12/24 10:56:20;;;;;;;4.00;0.98;;;;;;;9.52;66.63;98972.25;5003103;28;20049;-53
2020/12/24 10:58:47;;;;;;;4.03;0.55;;;;;;;9.84;66.71;98960.91;4988198;28;20053;-55
2020/12/24 11:01:17;;;;;;;2.70;0.55;;;;;;;9.96;65.56;98962.47;4983461;28;20037;-55
2020/12/24 11:03:45;;;;;;;4.05;0.60;;;;;;;9.80;65.39;98952.50;4991589;28;20407;-53
2020/12/24 11:06:20;;;;;;;5.47;0.82;;;;;;;9.87;65.12;98957.75;4978839;28;20477;-54
2020/12/24 11:08:46;;;;;;;3.17;0.55;;;;;;;9.69;65.44;98950.72;4968489;28;20088;-55
2020/12/24 11:11:12;;;;;;;6.93;0.90;;;;;;;10.17;63.50;98950.09;4970501;28;20533;-52
2020/12/24 11:13:37;;;;;;;1.77;0.50;;;;;;;9.91;64.55;98940.81;4988422;28;20052;-54
2020/12/24 11:16:03;;;;;;;4.30;0.88;;;;;;;10.30;66.31;98943.56;4972013;28;20129;-55
2020/12/24 11:18:30;;;;;;;4.50;0.98;;;;;;;10.36;65.17;98929.91;4973245;28;20041;-55
2020/12/24 11:20:56;;;;;;;2.30;0.70;;;;;;;10.21;65.51;98935.09;4987679;28;20625;-56
2020/12/24 11:23:22;;;;;;;2.92;0.88;;;;;;;10.43;65.65;98919.72;4987801;28;20069;-55
2020/12/24 11:25:48;;;;;;;3.22;0.95;;;;;;;10.45;63.75;98917.59;5002324;28;20057;-56
2020/12/24 11:28:13;;;;;;;3.03;0.75;;;;;;;10.80;63.08;98917.25;4987764;28;20388;-55
2020/12/24 11:30:39;;;;;;;4.45;0.93;;;;;;;10.85;63.49;98909.16;4987856;28;20034;-56
2020/12/24 11:33:06;;;;;;;2.00;0.98;;;;;;;10.87;62.91;98908.91;5005834;28;20052;-57
2020/12/24 11:35:32;;;;;;;2.22;0.65;;;;;;;11.03;62.99;98907.22;4984549;28;20038;-55
2020/12/24 11:37:58;;;;;;;2.53;0.40;;;;;;;10.42;62.61;98901.06;4992234;28;20045;-53
2020/12/24 11:40:24;;;;;;;2.38;0.50;;;;;;;10.32;62.55;98903.63;4987054;28;20034;-54
2020/12/24 11:42:49;;;;;;;1.73;0.50;;;;;;;10.58;65.59;98908.31;4986683;28;20049;-54
2020/12/24 11:45:15;;;;;;;2.47;0.75;;;;;;;10.50;64.51;98895.22;4990050;28;20057;-54
2020/12/24 11:47:41;;;;;;;1.33;0.40;;;;;;;10.49;61.83;98896.31;4992099;28;20048;-54
2020/12/24 11:50:07;;;;;;;1.58;0.50;;;;;;;10.17;64.35;98890.69;4993843;28;20045;-54
2020/12/24 11:52:37;;;;;;;0.93;0.30;;;;;;;10.11;65.41;98886.28;4952593;28;20508;-55
2020/12/24 11:55:06;;;;;;;1.60;0.50;;;;;;;10.13;64.10;98894.97;4964448;28;20045;-53
2020/12/24 11:57:32;;;;;;;1.52;1.08;;;;;;;10.54;66.06;98888.25;4977783;28;20045;-54
2020/12/24 11:59:58;;;;;;;0.88;0.20;;;;;;;10.68;62.08;98894.09;4986831;28;20537;-53
2020/12/24 12:02:23;;;;;;;1.05;0.30;;;;;;;11.15;66.64;98888.97;4986690;28;20042;-55
2020/12/24 12:04:49;;;;;;;0.82;0.20;;;;;;;10.62;62.82;98879.69;4974930;28;20045;-56
2020/12/24 12:07:16;;;;;;;0.90;0.30;;;;;;;10.95;63.01;98896.84;4991472;28;20356;-54
2020/12/24 12:09:42;;;;;;;0.40;0.30;;;;;;;10.71;62.81;98885.50;4974851;28;20571;-54
2020/12/24 12:12:08;;;;;;;0.77;0.40;;;;;;;11.03;64.94;98894.50;4988922;28;20062;-55
2020/12/24 12:14:35;;;;;;;0.47;0.30;;;;;;;11.12;63.43;98890.28;4995069;28;20034;-53
2020/12/24 12:17:02;;;;;;;1.25;0.30;;;;;;;10.89;64.52;98893.28;5004286;28;20574;-53
2020/12/24 12:19:27;;;;;;;1.08;0.20;;;;;;;10.36;65.29;98865.06;4990516;28;20041;-54
2020/12/24 12:21:53;;;;;;;0.52;0.40;;;;;;;10.31;65.02;98867.69;4991935;28;20111;-53
2020/12/24 12:24:19;;;;;;;1.38;0.20;;;;;;;10.51;65.41;98878.75;4994169;28;20057;-55
2020/12/24 12:26:44;;;;;;;2.63;0.38;;;;;;;10.28;64.43;98883.56;4991984;28;20043;-54
2020/12/24 12:29:11;;;;;;;0.63;0.35;;;;;;;10.38;64.44;98871.03;5008152;28;20188;-56
2020/12/24 12:31:36;;;;;;;1.85;0.45;;;;;;;10.58;66.05;98873.19;4989437;28;20088;-53
2020/12/24 12:34:02;;;;;;;0.20;0.20;;;;;;;10.09;66.45;98873.03;4979007;28;20120;-55
2020/12/24 12:36:28;;;;;;;0.60;0.30;;;;;;;10.22;65.47;98880.00;4965065;28;20042;-54
2020/12/24 12:38:53;;;;;;;2.72;0.30;;;;;;;10.63;67.69;98877.81;4964448;28;20348;-54
2020/12/24 12:41:20;;;;;;;1.30;0.38;;;;;;;10.07;65.75;98868.94;4994854;28;20128;-54
2020/12/24 12:43:47;;;;;;;0.80;0.32;;;;;;;10.02;66.52;98871.59;4982678;28;20120;-55
2020/12/24 12:46:22;;;;;;;0.55;0.28;;;;;;;10.15;66.58;98865.84;4990882;28;20328;-54
2020/12/24 12:48:48;;;;;;;1.30;0.30;;;;;;;10.14;65.51;98877.69;4993237;28;20502;-54
2020/12/24 12:51:14;;;;;;;0.55;0.30;;;;;;;10.18;65.57;98876.16;4982299;28;20522;-54
2020/12/24 12:53:39;;;;;;;1.58;0.38;;;;;;;10.02;65.90;98879.69;4992122;28;20038;-54
2020/12/24 12:56:09;;;;;;;0.57;0.40;;;;;;;10.29;65.49;98877.09;4992787;28;20283;-53
2020/12/24 12:58:36;;;;;;;0.90;0.73;;;;;;;10.53;66.18;98881.22;5007809;28;20115;-56
2020/12/24 13:01:02;;;;;;;0.32;0.32;;;;;;;10.27;65.38;98871.94;5009441;28;20048;-55
2020/12/24 13:03:27;;;;;;;1.33;0.52;;;;;;;10.28;66.14;98864.66;4992192;28;20209;-54
2020/12/24 13:05:52;;;;;;;0.20;0.20;;;;;;;9.86;65.71;98867.00;5008626;28;20558;-54
2020/12/24 13:08:18;;;;;;;1.15;0.40;;;;;;;9.81;65.68;98870.44;4987578;28;20490;-53
2020/12/24 13:10:44;;;;;;;1.63;0.40;;;;;;;9.68;66.65;98873.50;5008295;28;20237;-54
2020/12/24 13:13:10;;;;;;;0.40;0.40;;;;;;;9.60;66.71;98872.00;5008313;28;20065;-53
2020/12/24 13:15:35;;;;;;;1.73;0.60;;;;;;;9.70;66.90;98877.56;4993406;28;20183;-54
2020/12/24 13:18:02;;;;;;;3.60;0.75;;;;;;;9.79;68.67;98867.19;4992112;28;20041;-54
2020/12/24 13:20:27;;;;;;;0.70;0.30;;;;;;;9.48;67.90;98865.06;4991818;28;20099;-54
2020/12/24 13:22:53;;;;;;;0.73;0.47;;;;;;;9.68;68.05;98871.63;4991424;28;20072;-54
2020/12/24 13:25:19;;;;;;;1.25;0.50;;;;;;;9.82;66.77;98872.06;4991848;28;20152;-54
2020/12/24 13:27:46;;;;;;;2.53;0.50;;;;;;;10.12;70.03;98859.03;4992572;28;20402;-54
2020/12/24 13:30:11;;;;;;;0.47;0.20;;;;;;;9.66;66.78;98865.66;4992112;28;20052;-54
2020/12/24 13:32:40;;;;;;;0.85;0.50;;;;;;;10.02;70.77;98869.69;4991026;28;20441;-54
2020/12/24 13:35:10;;;;;;;0.50;0.30;;;;;;;9.48;65.07;98865.88;4989059;28;20577;-55
2020/12/24 13:37:36;;;;;;;1.10;0.50;;;;;;;9.61;67.03;98862.03;4989223;28;20145;-53
2020/12/24 13:40:04;;;;;;;1.65;0.25;;;;;;;9.81;64.75;98863.16;4987191;28;20037;-55
2020/12/24 13:42:29;;;;;;;0.28;0.20;;;;;;;9.77;67.42;98863.91;4991545;28;20040;-57
2020/12/24 13:44:55;;;;;;;2.38;0.20;;;;;;;9.46;64.30;98862.59;5008703;28;20045;-54
2020/12/24 13:47:20;;;;;;;0.30;0.20;;;;;;;9.27;63.58;98869.28;4993122;28;20053;-54
2020/12/24 13:49:46;;;;;;;0.70;0.30;;;;;;;9.74;67.86;98850.91;4989813;28;20041;-54
2020/12/24 13:52:11;;;;;;;1.67;0.45;;;;;;;9.40;65.85;98856.31;5005451;28;20034;-55
2020/12/24 13:54:36;;;;;;;0.35;0.30;;;;;;;9.15;64.49;98844.28;4980148;28;20041;-56
2020/12/24 13:57:02;;;;;;;0.35;0.30;;;;;;;9.31;67.47;98843.47;5003569;28;20068;-55
2020/12/24 13:59:27;;;;;;;0.90;0.40;;;;;;;9.85;70.18;98839.19;4980070;28;20060;-54
2020/12/24 14:01:54;;;;;;;0.30;0.20;;;;;;;9.19;65.99;98843.56;4979438;28;20052;-56
2020/12/24 14:04:21;;;;;;;0.65;0.25;;;;;;;9.17;65.19;98850.25;5012058;28;20080;-55
2020/12/24 14:06:47;;;;;;;2.47;0.40;;;;;;;9.66;68.00;98844.06;4970739;28;20049;-57
2020/12/24 14:09:12;;;;;;;0.50;0.30;;;;;;;9.12;64.12;98836.66;4969581;28;20041;-54
2020/12/24 14:11:38;;;;;;;0.28;0.28;;;;;;;9.14;64.68;98843.44;4969838;28;20045;-54
2020/12/24 14:14:04;;;;;;;0.35;0.20;;;;;;;9.33;63.82;98849.44;4983250;28;20586;-55
2020/12/24 14:16:29;;;;;;;0.65;0.50;;;;;;;9.02;65.00;98848.09;4985992;28;20046;-57
2020/12/24 14:18:54;;;;;;;0.20;0.20;;;;;;;9.13;65.08;98844.50;4970196;28;20046;-56
2020/12/24 14:21:20;;;;;;;4.38;0.45;;;;;;;9.14;65.07;98842.63;4967370;28;20046;-54
2020/12/24 14:23:45;;;;;;;0.47;0.38;;;;;;;9.12;65.54;98850.13;4970456;28;20045;-56
2020/12/24 14:26:22;;;;;;;0.55;0.20;;;;;;;8.72;65.96;98918.41;4969937;28;20077;-57
2020/12/24 14:28:48;;;;;;;4.97;1.83;;;;;;;7.77;68.96;98942.06;4969601;28;20030;-56
2020/12/24 14:31:14;;;;;;;0.50;0.40;;;;;;;7.30;72.61;98935.75;4967928;28;20053;-56
2020/12/24 14:33:40;;;;;;;0.50;0.50;;;;;;;7.17;74.77;98951.03;4971204;28;20057;-56
2020/12/24 14:36:12;;;;;;;0.80;0.77;;;;;;;7.06;74.33;98967.94;4970967;28;20050;-57
2020/12/24 14:38:38;;;;;;;0.88;0.60;;;;;;;6.68;74.89;98973.59;4999353;28;20041;-56
2020/12/24 14:41:04;;;;;;;7.40;0.73;;;;;;;6.63;75.23;98997.59;4991898;28;20072;-57
2020/12/24 14:43:30;;;;;;;0.80;0.70;;;;;;;7.16;78.92;98999.63;4988602;28;20084;-57
2020/12/24 14:45:59;;;;;;;0.60;0.60;;;;;;;6.22;72.86;99010.81;5004881;28;20297;-56
2020/12/24 14:48:26;;;;;;;0.57;0.57;;;;;;;6.26;74.06;99014.69;4990003;28;20107;-57
2020/12/24 14:50:51;;;;;;;0.60;0.60;;;;;;;6.34;74.68;99017.09;4982228;28;20120;-54
2020/12/24 14:53:17;;;;;;;1.08;0.77;;;;;;;6.21;73.95;99025.28;4967024;28;20053;-56
2020/12/24 14:55:43;;;;;;;0.65;0.65;;;;;;;6.03;74.78;99039.44;4951764;28;20038;-55
2020/12/24 14:58:08;;;;;;;1.08;0.60;;;;;;;5.83;74.40;99044.94;4962504;28;20125;-56
2020/12/24 15:00:33;;;;;;;0.68;0.68;;;;;;;5.82;75.53;99041.44;4968789;28;20419;-56
2020/12/24 15:03:00;;;;;;;2.90;0.60;;;;;;;5.85;75.70;99055.44;4950248;28;20034;-55
2020/12/24 15:05:26;;;;;;;1.58;0.82;;;;;;;5.99;76.31;99049.00;4959893;28;20060;-54
2020/12/24 15:07:52;;;;;;;0.73;0.73;;;;;;;5.66;75.41;99070.59;4972081;28;20072;-56
2020/12/24 15:10:17;;;;;;;0.73;0.73;;;;;;;5.71;76.11;99068.94;5005529;28;20499;-55
2020/12/24 15:12:43;;;;;;;1.10;1.00;;;;;;;5.62;78.79;99067.56;4987706;28;20038;-56
2020/12/24 15:15:11;;;;;;;0.65;0.65;;;;;;;5.65;76.63;99080.53;4985676;28;20165;-56
2020/12/24 15:17:38;;;;;;;0.63;0.63;;;;;;;5.88;75.65;99089.91;4989569;28;20569;-56
2020/12/24 15:20:04;;;;;;;1.70;1.08;;;;;;;5.68;77.53;99096.19;5006635;28;20040;-57
2020/12/24 15:22:29;;;;;;;0.75;0.75;;;;;;;5.36;75.34;99105.22;5006332;28;20459;-55
2020/12/24 15:24:55;;;;;;;0.80;0.80;;;;;;;5.46;76.39;99106.41;4990825;28;20118;-55
2020/12/24 15:27:21;;;;;;;1.13;0.98;;;;;;;5.41;76.13;99124.16;4990762;28;20033;-55
2020/12/24 15:29:47;;;;;;;1.65;1.38;;;;;;;5.26;75.21;99124.41;5006804;28;20422;-55
2020/12/24 15:32:13;;;;;;;1.80;1.33;;;;;;;5.39;75.61;99132.41;4988502;28;20041;-55
2020/12/24 15:34:38;;;;;;;1.40;1.30;;;;;;;5.30;76.06;99136.38;5008504;28;20088;-56
2020/12/24 15:37:04;;;;;;;2.03;1.63;;;;;;;5.59;76.20;99134.19;5008505;28;20402;-56
2020/12/24 15:39:29;;;;;;;1.52;1.33;;;;;;;5.41;75.24;99133.03;4990098;28;20052;-55
2020/12/24 15:41:55;;;;;;;2.25;1.92;;;;;;;5.38;76.94;99135.31;4992596;28;20049;-56
2020/12/24 15:44:20;;;;;;;2.35;1.65;;;;;;;5.39;77.94;99145.00;4995703;28;20037;-55
2020/12/24 15:46:45;;;;;;;1.55;1.45;;;;;;;5.17;75.34;99147.13;4992184;28;20132;-55
2020/12/24 15:49:11;;;;;;;1.52;1.42;;;;;;;5.18;76.92;99151.44;4994888;28;20041;-55
2020/12/24 15:51:36;;;;;;;1.42;1.30;;;;;;;5.18;76.43;99154.13;4986298;28;20041;-56
2020/12/24 15:54:02;;;;;;;1.80;1.55;;;;;;;5.45;78.08;99158.34;5007245;28;20300;-57
2020/12/24 15:56:28;;;;;;;2.40;1.50;;;;;;;5.33;77.06;99164.59;5006033;28;20042;-56
2020/12/24 15:58:54;;;;;;;2.30;2.08;;;;;;;5.31;76.52;99161.28;5006820;28;20048;-55
2020/12/24 16:01:20;;;;;;;2.10;1.90;;;;;;;5.22;74.69;99162.56;5004695;28;20037;-56
2020/12/24 16:03:46;;;;;;;1.85;1.75;;;;;;;5.22;75.66;99163.38;5006619;28;20454;-55
2020/12/24 16:06:11;;;;;;;1.88;1.60;;;;;;;5.53;75.74;99168.03;4991089;28;20057;-56
2020/12/24 16:08:37;;;;;;;2.13;1.80;;;;;;;5.26;75.79;99171.81;4992833;28;20423;-55
2020/12/24 16:11:03;;;;;;;2.83;1.88;;;;;;;5.10;75.04;99168.56;4993261;28;20047;-56
2020/12/24 16:13:28;;;;;;;1.60;1.50;;;;;;;5.33;76.11;99178.81;5008966;28;20120;-57
2020/12/24 16:15:54;;;;;;;1.50;1.40;;;;;;;5.32;75.36;99185.19;4991273;28;20128;-56
2020/12/24 16:18:21;;;;;;;1.60;1.50;;;;;;;5.38;76.91;99195.09;4992662;28;20124;-57
2020/12/24 16:20:48;;;;;;;3.00;1.60;;;;;;;5.46;76.79;99194.84;4992896;28;20045;-57
2020/12/24 16:23:13;;;;;;;1.50;1.40;;;;;;;5.41;73.80;99215.31;5024916;28;20132;-56
2020/12/24 16:25:41;;;;;;;1.50;1.40;;;;;;;5.27;74.69;99211.00;4991273;28;20124;-56
2020/12/24 16:28:07;;;;;;;2.60;1.42;;;;;;;5.41;73.79;99221.50;4993029;28;20053;-57
2020/12/24 16:30:32;;;;;;;1.60;1.50;;;;;;;5.27;73.46;99222.53;4994773;28;20108;-55
2020/12/24 16:32:57;;;;;;;1.48;1.38;;;;;;;5.47;74.03;99226.00;4991838;28;20126;-55
2020/12/24 16:35:23;;;;;;;3.28;1.63;;;;;;;5.34;73.13;99242.09;4992512;28;20128;-55
2020/12/24 16:37:49;;;;;;;1.13;1.02;;;;;;;5.17;74.13;99235.53;4992351;28;20117;-56
2020/12/24 16:40:16;;;;;;;1.40;1.30;;;;;;;5.25;74.53;99240.69;4993007;28;20037;-56
2020/12/24 16:42:42;;;;;;;1.30;1.20;;;;;;;5.13;73.02;99245.03;4998629;28;20047;-56
2020/12/24 16:45:07;;;;;;;1.25;1.15;;;;;;;5.22;74.73;99238.41;4990996;28;20041;-57